Crews, Texas
Current Conditions -  °F | °C
As of 1:58 AM on Saturday 25 Oct 2014 (Local Time) from KDYS Reporting Station
Clear Clear  
Wind Chill: 65°   Ceiling: Unl
Heat Index: 65°   Visibility: 10mi
Dew Point: 54°   Wind: 8mph
Humidity: 67%   Direction: 190°S
Pressure: 30.11"   Gusts: NA
Location:  31.975°N, 99.9034°W
Report Text: KDYS 250658Z AUTO 19007KT 10SM CLR 18/12 A3011 RMK AO2 SLP157 T01830121 $
Loading
Personal Weather Stations






























Interactive Weather Map New forecast layout! Learn more

10-Day Weather Forecast

Advertisements
Track Severe Weather on mobile